Time;durP1;ratioP1;P1;durP2;ratioP2;P2;SDS_P1;SDS_P2;PMS_P1;PMS_P2;Temp;Humidity;BMP_temperature;BMP_pressure;BME280_temperature;BME280_humidity;BME280_pressure;Samples;Min_cycle;Max_cycle;Signal;HPM_P1;HPM_P2
2021/12/03 00:00:36;;;;;;;4.03;1.67;;;2.40;99.90;;;;;;5059704;28;20570;-89
2021/12/03 00:03:04;;;;;;;8.35;2.60;;;1.00;99.90;;;;;;5075533;28;20661;-89
2021/12/03 00:05:30;;;;;;;7.88;2.05;;;1.00;99.90;;;;;;5075133;28;20717;-88
2021/12/03 00:07:56;;;;;;;7.35;1.90;;;1.00;99.90;;;;;;5057536;28;20072;-88
2021/12/03 00:10:26;;;;;;;3.60;1.80;;;2.10;99.90;;;;;;5057971;28;20036;-88
2021/12/03 00:12:53;;;;;;;4.03;1.80;;;0.90;99.90;;;;;;5058324;28;20036;-89
2021/12/03 00:15:23;;;;;;;6.32;1.90;;;0.90;99.90;;;;;;5074583;28;20043;-89
2021/12/03 00:17:49;;;;;;;6.07;1.98;;;0.90;99.90;;;;;;5057626;28;20033;-89
2021/12/03 00:20:16;;;;;;;6.25;1.88;;;0.90;99.90;;;;;;5058504;28;20044;-88
2021/12/03 00:22:46;;;;;;;5.50;2.17;;;2.00;99.90;;;;;;5074828;28;20046;-89
2021/12/03 00:25:12;;;;;;;5.43;1.70;;;0.90;99.90;;;;;;5075055;28;20166;-88
2021/12/03 00:27:39;;;;;;;7.55;2.05;;;1.00;99.90;;;;;;5058117;28;20041;-88
2021/12/03 00:30:08;;;;;;;5.05;1.70;;;1.40;99.90;;;;;;5075032;28;20549;-89
2021/12/03 00:32:34;;;;;;;3.88;1.90;;;1.00;99.90;;;;;;5075413;28;20082;-88
2021/12/03 00:34:59;;;;;;;4.10;1.60;;;1.00;99.90;;;;;;5058106;28;20033;-88
2021/12/03 00:37:25;;;;;;;8.50;1.70;;;1.10;99.90;;;;;;5074876;28;20041;-89
2021/12/03 00:39:51;;;;;;;4.30;1.30;;;1.20;99.90;;;;;;5074749;28;20811;-88
2021/12/03 00:42:18;;;;;;;3.22;1.70;;;1.10;99.90;;;;;;5074806;28;20036;-88
2021/12/03 00:44:50;;;;;;;5.20;1.67;;;1.20;99.90;;;;;;5074411;28;20150;-89
2021/12/03 00:47:16;;;;;;;4.80;1.70;;;2.30;99.90;;;;;;5072438;28;20033;-89
2021/12/03 00:49:42;;;;;;;4.10;1.73;;;1.10;99.90;;;;;;5074829;28;20409;-88
2021/12/03 00:52:08;;;;;;;5.03;1.95;;;1.00;99.90;;;;;;5041150;28;20696;-89
2021/12/03 00:54:34;;;;;;;8.80;2.50;;;0.90;99.90;;;;;;5057433;28;20068;-88
2021/12/03 00:57:00;;;;;;;4.80;2.03;;;0.90;99.90;;;;;;5074099;28;20491;-88
2021/12/03 00:59:25;;;;;;;5.45;2.10;;;1.40;99.90;;;;;;5057824;28;20036;-89
2021/12/03 01:01:51;;;;;;;6.97;2.40;;;0.80;99.90;;;;;;5056280;28;20045;-88
2021/12/03 01:04:17;;;;;;;7.82;2.58;;;1.20;99.90;;;;;;5057602;28;20286;-88
2021/12/03 01:06:43;;;;;;;4.63;2.30;;;0.90;99.90;;;;;;5073965;28;20049;-88
2021/12/03 01:09:09;;;;;;;7.43;2.15;;;0.90;99.90;;;;;;5039853;28;20036;-88
2021/12/03 01:11:34;;;;;;;7.15;2.40;;;0.90;99.90;;;;;;5057304;28;20047;-88
2021/12/03 01:14:01;;;;;;;3.67;1.77;;;0.90;99.90;;;;;;5073630;28;20044;-88
2021/12/03 01:16:27;;;;;;;;;;;2.30;99.90;;;;;;5074489;28;20471;-89
2021/12/03 01:18:53;;;;;;;6.60;2.00;;;1.00;99.90;;;;;;5073738;28;19958;-89
2021/12/03 01:21:19;;;;;;;5.20;1.92;;;1.00;99.90;;;;;;5057149;28;20831;-88
2021/12/03 01:23:46;;;;;;;6.85;1.90;;;1.00;99.90;;;;;;5074179;28;20075;-88
2021/12/03 01:26:13;;;;;;;4.90;1.95;;;1.10;99.90;;;;;;5074220;28;20032;-89
2021/12/03 01:28:39;;;;;;;;;;;1.10;99.90;;;;;;5075050;28;20446;-88
2021/12/03 01:31:04;;;;;;;3.08;1.75;;;1.00;99.90;;;;;;5057196;28;19916;-89
2021/12/03 01:33:30;;;;;;;6.60;2.25;;;1.10;99.90;;;;;;5073015;28;20048;-88
2021/12/03 01:35:56;;;;;;;5.45;1.90;;;1.10;99.90;;;;;;5073256;28;20044;-89
2021/12/03 01:38:22;;;;;;;6.63;1.88;;;1.00;99.90;;;;;;5040102;28;20025;-88
2021/12/03 01:40:48;;;;;;;7.38;2.10;;;1.00;99.90;;;;;;5056327;28;20126;-89
2021/12/03 01:43:21;;;;;;;4.22;1.90;;;2.50;99.90;;;;;;5072884;28;20033;-89
2021/12/03 01:45:46;;;;;;;4.68;1.90;;;1.10;99.90;;;;;;5072415;28;20041;-88
2021/12/03 01:48:12;;;;;;;5.75;1.80;;;1.10;99.90;;;;;;5072438;28;20044;-88
2021/12/03 01:50:43;;;;;;;4.90;2.10;;;1.10;99.90;;;;;;5073402;28;20040;-88
2021/12/03 01:53:11;;;;;;;5.35;2.70;;;1.70;99.90;;;;;;5071977;28;20032;-88
2021/12/03 01:55:38;;;;;;;5.07;1.73;;;1.10;99.90;;;;;;5070598;28;20507;-87
2021/12/03 01:58:04;;;;;;;3.28;1.80;;;1.20;99.90;;;;;;5055751;28;20040;-88
2021/12/03 02:00:31;;;;;;;;;;;1.20;99.90;;;;;;5073955;28;20130;-89
2021/12/03 02:02:57;;;;;;;6.28;2.00;;;1.20;99.90;;;;;;5072331;28;19921;-88
2021/12/03 02:05:24;;;;;;;;;;;1.70;99.90;;;;;;5056848;28;20514;-88
2021/12/03 02:07:50;;;;;;;5.90;2.17;;;1.20;99.90;;;;;;5072736;28;19920;-88
2021/12/03 02:10:17;;;;;;;7.28;2.45;;;1.20;99.90;;;;;;5072681;28;20446;-88
2021/12/03 02:12:43;;;;;;;6.82;2.20;;;1.20;99.90;;;;;;5071924;28;20058;-88
2021/12/03 02:15:10;;;;;;;4.70;1.88;;;1.30;99.90;;;;;;5056325;28;20043;-88
2021/12/03 02:17:36;;;;;;;3.40;2.00;;;1.40;99.90;;;;;;5072502;28;20036;-89
2021/12/03 02:20:03;;;;;;;5.90;1.80;;;1.40;99.90;;;;;;5054771;28;20041;-88
2021/12/03 02:22:31;;;;;;;5.82;1.90;;;1.50;99.90;;;;;;5071731;28;20123;-88
2021/12/03 02:24:56;;;;;;;4.72;2.05;;;1.50;99.90;;;;;;5071423;28;20036;-88
2021/12/03 02:27:22;;;;;;;7.70;2.50;;;1.50;99.90;;;;;;5071309;28;20546;-89
2021/12/03 02:29:48;;;;;;;5.27;2.10;;;2.60;99.90;;;;;;5071966;28;20040;-88
2021/12/03 02:32:14;;;;;;;7.57;2.35;;;1.60;99.90;;;;;;5055820;28;20361;-89
2021/12/03 02:34:40;;;;;;;3.33;2.00;;;1.60;99.90;;;;;;5056057;28;20063;-88
2021/12/03 02:37:06;;;;;;;5.50;2.42;;;1.80;99.90;;;;;;5055557;28;20037;-88
2021/12/03 02:39:32;;;;;;;6.78;2.80;;;1.70;99.90;;;;;;5072638;28;20048;-88
2021/12/03 02:41:58;;;;;;;5.18;2.65;;;1.60;99.90;;;;;;5055450;28;20115;-88
2021/12/03 02:44:24;;;;;;;6.32;2.70;;;2.80;99.90;;;;;;5055597;28;20132;-88
2021/12/03 02:46:50;;;;;;;9.43;3.45;;;1.80;99.90;;;;;;5071907;28;20116;-87
2021/12/03 02:49:15;;;;;;;7.47;3.40;;;1.80;99.90;;;;;;5071061;28;20070;-88
2021/12/03 02:51:42;;;;;;;13.65;4.22;;;2.10;99.90;;;;;;5071393;28;20079;-88
2021/12/03 02:54:09;;;;;;;10.43;4.88;;;1.70;99.90;;;;;;5070891;28;20115;-88
2021/12/03 02:56:35;;;;;;;11.63;5.22;;;1.90;99.90;;;;;;5070749;28;20048;-88
2021/12/03 02:59:02;;;;;;;13.80;5.60;;;1.90;99.90;;;;;;5070929;28;20048;-89
2021/12/03 03:01:27;;;;;;;;;;;2.70;99.90;;;;;;5054721;28;20377;-89
2021/12/03 03:03:53;;;;;;;15.23;6.53;;;1.80;99.90;;;;;;5054130;28;19924;-88
2021/12/03 03:06:19;;;;;;;13.30;5.55;;;1.80;99.90;;;;;;5070262;28;20037;-89
2021/12/03 03:08:47;;;;;;;11.48;5.78;;;1.80;99.90;;;;;;5070735;28;20099;-88
2021/12/03 03:11:16;;;;;;;13.77;4.72;;;1.80;99.90;;;;;;5070307;28;20040;-88
2021/12/03 03:13:41;;;;;;;11.85;6.20;;;1.80;99.90;;;;;;5070979;28;20045;-87
2021/12/03 03:16:07;;;;;;;17.05;7.38;;;3.40;99.90;;;;;;5070542;28;20040;-88
2021/12/03 03:18:33;;;;;;;14.05;7.68;;;2.60;99.90;;;;;;5071738;28;20042;-89
2021/12/03 03:21:01;;;;;;;15.93;8.27;;;1.80;99.90;;;;;;5054452;28;20495;-88
2021/12/03 03:23:28;;;;;;;18.38;8.52;;;2.90;99.90;;;;;;5068197;28;21756;-88
2021/12/03 03:25:54;;;;;;;19.38;10.48;;;2.20;99.90;;;;;;5037723;28;20032;-88
2021/12/03 03:28:21;;;;;;;23.50;9.80;;;2.00;99.90;;;;;;5054689;28;20100;-89
2021/12/03 03:30:49;;;;;;;23.08;11.60;;;2.00;99.90;;;;;;5071932;28;20044;-88
2021/12/03 03:33:16;;;;;;;22.33;13.15;;;2.00;99.90;;;;;;5071197;28;20045;-89
2021/12/03 03:35:42;;;;;;;25.20;13.15;;;2.00;99.90;;;;;;5054206;28;20044;-88
2021/12/03 03:38:08;;;;;;;27.40;14.90;;;2.00;99.90;;;;;;5054095;28;20048;-88
2021/12/03 03:40:35;;;;;;;25.80;14.55;;;2.80;99.90;;;;;;5071262;28;20500;-88
2021/12/03 03:43:03;;;;;;;26.58;15.40;;;2.00;99.90;;;;;;5054583;28;20036;-89
2021/12/03 03:45:31;;;;;;;34.65;17.35;;;2.10;99.90;;;;;;5055085;28;20043;-88
2021/12/03 03:47:57;;;;;;;30.75;16.70;;;2.00;99.90;;;;;;5070878;28;20058;-88
2021/12/03 03:50:23;;;;;;;36.47;19.60;;;1.90;99.90;;;;;;5053529;28;20477;-88
2021/12/03 03:52:51;;;;;;;40.05;19.50;;;3.40;99.90;;;;;;5053955;28;20042;-88
2021/12/03 03:55:18;;;;;;;37.75;19.60;;;1.90;99.90;;;;;;5053329;28;20033;-88
2021/12/03 03:57:45;;;;;;;35.55;17.50;;;1.90;99.90;;;;;;5053794;28;20032;-89
2021/12/03 04:00:15;;;;;;;26.55;15.55;;;1.90;99.90;;;;;;5053758;28;20051;-89
2021/12/03 04:02:41;;;;;;;34.80;18.88;;;2.00;99.90;;;;;;5069176;28;20041;-89
2021/12/03 04:05:08;;;;;;;35.13;18.95;;;2.00;99.90;;;;;;5053903;28;20067;-89
2021/12/03 04:07:34;;;;;;;34.50;19.02;;;2.00;99.90;;;;;;5068861;28;20446;-89
2021/12/03 04:10:00;;;;;;;32.00;18.00;;;2.00;99.90;;;;;;5068367;28;20032;-88
2021/12/03 04:12:25;;;;;;;31.97;17.37;;;2.00;99.90;;;;;;5052502;28;20404;-88
2021/12/03 04:14:51;;;;;;;36.70;18.47;;;3.30;99.90;;;;;;5053515;28;20281;-89
2021/12/03 04:17:17;;;;;;;35.72;17.85;;;2.60;99.90;;;;;;5053608;28;20062;-89
2021/12/03 04:19:43;;;;;;;30.23;17.20;;;1.90;99.90;;;;;;5070221;28;20097;-89
2021/12/03 04:22:14;;;;;;;32.60;17.42;;;1.90;99.90;;;;;;5069649;28;20478;-88
2021/12/03 04:24:41;;;;;;;29.15;17.02;;;1.90;99.90;;;;;;5037440;28;20040;-88
2021/12/03 04:27:08;;;;;;;31.05;17.52;;;3.30;99.90;;;;;;5053603;28;20044;-89
2021/12/03 04:29:34;;;;;;;28.25;16.98;;;1.80;99.90;;;;;;5070068;28;20083;-89
2021/12/03 04:32:00;;;;;;;30.65;17.33;;;1.90;99.90;;;;;;5053745;28;20528;-89
2021/12/03 04:34:26;;;;;;;24.47;15.50;;;1.80;99.90;;;;;;5070435;28;20037;-89
2021/12/03 04:36:51;;;;;;;26.42;16.65;;;1.80;99.90;;;;;;5041587;28;20037;-89
2021/12/03 04:39:17;;;;;;;28.77;17.05;;;2.90;99.90;;;;;;5074539;28;20379;-88
2021/12/03 04:41:43;;;;;;;31.20;17.08;;;2.70;99.90;;;;;;5058982;28;20040;-89
2021/12/03 04:44:09;;;;;;;29.50;15.30;;;2.40;99.90;;;;;;5041947;28;20028;-89
2021/12/03 04:46:35;;;;;;;27.92;16.35;;;3.10;99.90;;;;;;5075068;28;20044;-89
2021/12/03 04:49:01;;;;;;;25.40;15.73;;;1.80;99.90;;;;;;5073736;28;20473;-89
2021/12/03 04:51:27;;;;;;;29.58;16.80;;;1.90;99.90;;;;;;5056928;28;20024;-89
2021/12/03 04:53:53;;;;;;;25.45;15.90;;;1.80;99.90;;;;;;5040469;28;20040;-89
2021/12/03 04:56:18;;;;;;;26.50;16.88;;;1.80;99.90;;;;;;5073304;28;20028;-89
2021/12/03 04:58:44;;;;;;;24.75;14.93;;;1.80;99.90;;;;;;5073575;28;20036;-89
2021/12/03 05:01:10;;;;;;;25.93;15.10;;;1.80;99.90;;;;;;5073777;28;20041;-89
2021/12/03 05:03:37;;;;;;;27.38;14.32;;;2.80;99.90;;;;;;5072910;28;20309;-89
2021/12/03 05:06:08;;;;;;;25.08;15.50;;;2.90;99.90;;;;;;5073349;28;20120;-89
2021/12/03 05:08:34;;;;;;;27.85;16.55;;;3.20;99.90;;;;;;5057079;28;20032;-89
2021/12/03 05:11:00;;;;;;;25.25;15.57;;;1.90;99.90;;;;;;5073096;28;20036;-87
2021/12/03 05:13:29;;;;;;;26.52;15.40;;;1.70;99.90;;;;;;5056307;28;20033;-85
2021/12/03 05:15:56;;;;;;;24.90;15.07;;;1.70;99.90;;;;;;5073718;28;20037;-88
2021/12/03 05:18:23;;;;;;;;;;;1.70;99.90;;;;;;5074743;28;20522;-87
2021/12/03 05:20:51;;;;;;;26.48;15.25;;;1.70;99.90;;;;;;5074505;28;19955;-87
2021/12/03 05:23:17;;;;;;;26.83;14.18;;;2.80;99.90;;;;;;5058168;28;20029;-87
2021/12/03 05:25:43;;;;;;;22.02;14.38;;;1.80;99.90;;;;;;5075463;28;20040;-86
2021/12/03 05:28:10;;;;;;;24.30;13.98;;;2.90;99.90;;;;;;5057792;28;20503;-86
2021/12/03 05:30:37;;;;;;;21.38;14.40;;;1.80;99.90;;;;;;5074676;28;20036;-86
2021/12/03 05:33:04;;;;;;;23.33;15.13;;;3.20;99.90;;;;;;5074572;28;20085;-86
2021/12/03 05:35:30;;;;;;;22.92;14.95;;;1.80;99.90;;;;;;5075040;28;20566;-86
2021/12/03 05:37:56;;;;;;;26.25;15.27;;;3.10;99.90;;;;;;5075302;28;20412;-86
2021/12/03 05:40:22;;;;;;;23.60;14.90;;;1.90;99.90;;;;;;5075706;28;20037;-88
2021/12/03 05:42:48;;;;;;;22.95;14.73;;;1.80;99.90;;;;;;5058661;28;20033;-90
2021/12/03 05:45:16;;;;;;;;;;;1.80;99.90;;;;;;5074045;28;20044;-89
2021/12/03 05:47:42;;;;;;;20.70;13.10;;;2.10;99.90;;;;;;5104066;28;20590;-89
2021/12/03 05:50:10;;;;;;;20.63;13.73;;;1.80;99.90;;;;;;5074475;28;20032;-91
2021/12/03 05:52:36;;;;;;;21.38;14.63;;;1.80;99.90;;;;;;5050117;28;20028;-88
2021/12/03 05:55:03;;;;;;;20.35;12.85;;;3.50;99.90;;;;;;5039484;28;20105;-88
2021/12/03 05:57:29;;;;;;;22.10;14.07;;;1.90;99.90;;;;;;5056203;28;20048;-89
2021/12/03 05:59:55;;;;;;;19.60;12.15;;;2.00;99.90;;;;;;5056166;28;20120;-88
2021/12/03 06:02:21;;;;;;;19.10;13.45;;;1.90;99.90;;;;;;5072927;28;20093;-88
2021/12/03 06:04:47;;;;;;;;;;;2.40;99.90;;;;;;5072495;28;20064;-88
2021/12/03 06:07:13;;;;;;;24.55;13.80;;;2.00;99.90;;;;;;5072289;28;20378;-88
2021/12/03 06:09:39;;;;;;;28.02;15.50;;;2.00;99.90;;;;;;5055708;28;20039;-88
2021/12/03 06:12:05;;;;;;;25.63;14.70;;;2.20;99.90;;;;;;5072786;28;20460;-88
2021/12/03 06:14:31;;;;;;;24.70;14.45;;;2.00;99.90;;;;;;5072350;28;20121;-88
2021/12/03 06:16:57;;;;;;;23.92;15.85;;;2.00;99.90;;;;;;5072467;28;20040;-89
2021/12/03 06:19:23;;;;;;;25.30;15.65;;;2.90;99.90;;;;;;5073214;28;20765;-89
2021/12/03 06:21:49;;;;;;;23.05;13.73;;;3.00;99.90;;;;;;5073166;28;20040;-88
2021/12/03 06:24:15;;;;;;;23.92;14.55;;;2.10;99.90;;;;;;5072449;28;20043;-89
2021/12/03 06:26:40;;;;;;;27.67;15.30;;;2.10;99.90;;;;;;5055631;28;20052;-88
2021/12/03 06:29:06;;;;;;;24.60;14.25;;;2.10;99.90;;;;;;5056152;28;20770;-89
2021/12/03 06:31:33;;;;;;;23.08;15.90;;;3.30;99.90;;;;;;5055967;28;20032;-88
2021/12/03 06:33:59;;;;;;;23.73;14.02;;;2.10;99.90;;;;;;5072313;28;20033;-88
2021/12/03 06:36:25;;;;;;;21.58;13.60;;;3.20;99.90;;;;;;5073182;28;20507;-88
2021/12/03 06:38:50;;;;;;;24.63;15.63;;;2.20;99.90;;;;;;5055718;28;20040;-88
2021/12/03 06:41:16;;;;;;;24.23;14.50;;;2.20;99.90;;;;;;5036984;28;20642;-86
2021/12/03 06:43:42;;;;;;;22.40;12.53;;;3.00;99.90;;;;;;5054093;28;20282;-85
2021/12/03 06:46:07;;;;;;;25.75;14.70;;;2.30;99.90;;;;;;5069565;28;20032;-87
2021/12/03 06:48:33;;;;;;;22.98;13.98;;;2.30;99.90;;;;;;5074277;28;20039;-88
2021/12/03 06:50:59;;;;;;;26.25;15.10;;;2.30;99.90;;;;;;5059077;28;20109;-88
2021/12/03 06:53:30;;;;;;;19.60;12.23;;;3.80;99.90;;;;;;5040253;28;20506;-88
2021/12/03 06:56:04;;;;;;;20.40;12.90;;;2.40;99.90;;;;;;5073419;28;20404;-89
2021/12/03 06:58:30;;;;;;;25.85;12.65;;;2.50;99.90;;;;;;5074279;28;20369;-89
2021/12/03 07:00:56;;;;;;;18.65;12.30;;;2.60;99.90;;;;;;5073396;28;20039;-88
2021/12/03 07:03:22;;;;;;;;;;;2.50;99.90;;;;;;5055878;28;20056;-88
2021/12/03 07:05:48;;;;;;;17.05;10.82;;;2.60;99.90;;;;;;5073505;28;20369;-83
2021/12/03 07:08:14;;;;;;;25.02;11.95;;;2.60;99.90;;;;;;5036335;28;20090;-84
2021/12/03 07:10:40;;;;;;;18.20;10.82;;;3.70;99.90;;;;;;5051529;28;20033;-83
2021/12/03 07:13:07;;;;;;;19.55;11.07;;;2.60;99.90;;;;;;5070926;28;20040;-84
2021/12/03 07:15:34;;;;;;;19.35;11.43;;;2.60;99.90;;;;;;5070638;28;20028;-84
2021/12/03 07:18:00;;;;;;;19.70;10.68;;;2.60;99.90;;;;;;5071377;28;20040;-79
2021/12/03 07:20:27;;;;;;;21.52;12.10;;;2.70;99.90;;;;;;5071746;28;20481;-79
2021/12/03 07:22:53;;;;;;;14.95;9.55;;;2.70;99.90;;;;;;5071778;28;20091;-79
2021/12/03 07:25:19;;;;;;;17.15;9.65;;;2.60;99.90;;;;;;5054109;28;20037;-78
2021/12/03 07:27:45;;;;;;;20.80;11.25;;;2.60;99.90;;;;;;5053951;28;20036;-78
2021/12/03 07:30:13;;;;;;;16.35;8.48;;;2.60;99.90;;;;;;5071980;28;20396;-79
2021/12/03 07:32:39;;;;;;;16.90;9.93;;;2.60;99.90;;;;;;5052313;28;20039;-79
2021/12/03 07:35:07;;;;;;;17.33;9.18;;;3.20;99.90;;;;;;5066514;28;20111;-80
2021/12/03 07:37:33;;;;;;;17.60;8.95;;;2.60;99.90;;;;;;5055374;28;20071;-80
2021/12/03 07:40:03;;;;;;;14.98;7.55;;;3.00;99.90;;;;;;5071043;28;20043;-79
2021/12/03 07:42:29;;;;;;;12.23;7.60;;;2.70;99.90;;;;;;5070462;28;20105;-82
2021/12/03 07:44:54;;;;;;;13.05;7.45;;;3.30;99.90;;;;;;5037582;28;20044;-82
2021/12/03 07:47:20;;;;;;;12.85;7.50;;;3.80;99.90;;;;;;5070402;28;20407;-82
2021/12/03 07:49:48;;;;;;;10.70;6.57;;;3.00;99.90;;;;;;5069584;28;20086;-82
2021/12/03 07:52:15;;;;;;;13.10;6.82;;;2.80;99.90;;;;;;5069662;28;20071;-82
2021/12/03 07:54:41;;;;;;;11.88;6.72;;;2.80;99.90;;;;;;5069284;28;20045;-81
2021/12/03 07:57:07;;;;;;;12.52;5.93;;;2.80;99.90;;;;;;5070252;28;20047;-82
2021/12/03 07:59:34;;;;;;;9.93;6.57;;;2.80;99.90;;;;;;5069578;28;20061;-82
2021/12/03 08:02:00;;;;;;;10.80;5.45;;;2.80;99.90;;;;;;5069632;28;20036;-82
2021/12/03 08:04:26;;;;;;;10.80;5.95;;;2.80;99.90;;;;;;5052809;28;20603;-82
2021/12/03 08:06:53;;;;;;;9.88;5.45;;;2.80;99.90;;;;;;5070341;28;20040;-82
2021/12/03 08:09:21;;;;;;;9.65;6.20;;;2.80;99.90;;;;;;5071445;28;20040;-85
2021/12/03 08:11:46;;;;;;;12.23;5.32;;;2.80;99.90;;;;;;5059141;28;20039;-84
2021/12/03 08:14:12;;;;;;;7.38;4.65;;;3.90;99.90;;;;;;5076558;28;20044;-84
2021/12/03 08:16:39;;;;;;;8.63;5.20;;;3.00;99.90;;;;;;5042805;28;20036;-84
2021/12/03 08:19:05;;;;;;;13.40;4.55;;;3.00;99.90;;;;;;5059653;28;20072;-84
2021/12/03 08:21:31;;;;;;;;;;;3.10;99.90;;;;;;5059874;28;20522;-84
2021/12/03 08:23:59;;;;;;;13.05;4.38;;;3.80;99.90;;;;;;5109669;28;19917;-85
2021/12/03 08:26:27;;;;;;;7.65;4.40;;;4.10;99.90;;;;;;5075044;28;20048;-84
2021/12/03 08:28:52;;;;;;;10.85;4.28;;;3.40;99.90;;;;;;5042309;28;20045;-84
2021/12/03 08:31:18;;;;;;;9.68;4.68;;;3.30;99.90;;;;;;5075277;28;20037;-84
2021/12/03 08:33:45;;;;;;;12.55;4.60;;;3.30;99.90;;;;;;5075040;28;20032;-84
2021/12/03 08:36:11;;;;;;;;;;;4.00;99.90;;;;;;5058694;28;20041;-84
2021/12/03 08:38:37;;;;;;;12.18;4.90;;;3.90;99.90;;;;;;5075383;28;19923;-85
2021/12/03 08:41:03;;;;;;;9.32;4.85;;;3.40;99.90;;;;;;5059580;28;20115;-85
2021/12/03 08:43:30;;;;;;;9.70;4.68;;;3.30;99.90;;;;;;5072154;28;20044;-84
2021/12/03 08:45:56;;;;;;;12.57;5.07;;;3.40;99.90;;;;;;5060353;28;20492;-84
2021/12/03 08:48:24;;;;;;;10.48;5.50;;;3.40;99.90;;;;;;5076156;28;20445;-84
2021/12/03 08:51:03;;;;;;;11.88;5.22;;;3.50;99.90;;;;;;5075801;28;20055;-85
2021/12/03 08:56:13;;;;;;;8.98;5.35;;;3.50;99.90;;;;;;5076018;28;20533;-85
2021/12/03 08:58:39;;;;;;;13.83;6.40;;;3.50;99.90;;;;;;5075322;28;20126;-85
2021/12/03 09:01:07;;;;;;;14.23;6.90;;;3.50;99.90;;;;;;5041675;28;20626;-84
2021/12/03 09:03:33;;;;;;;14.20;6.07;;;3.60;99.90;;;;;;5074396;28;20296;-85
2021/12/03 09:05:59;;;;;;;14.70;6.40;;;3.50;99.90;;;;;;5041801;28;20139;-85
2021/12/03 09:08:25;;;;;;;13.82;6.75;;;4.00;99.90;;;;;;5058609;28;20037;-85
2021/12/03 09:10:51;;;;;;;15.70;7.13;;;4.60;99.90;;;;;;5075115;28;20048;-84
2021/12/03 09:13:16;;;;;;;16.85;8.55;;;4.50;99.90;;;;;;5075615;28;20083;-85
2021/12/03 09:15:53;;;;;;;13.13;7.15;;;3.60;99.90;;;;;;5075175;28;20044;-84
2021/12/03 09:23:56;;;;;;;17.52;8.43;;;3.70;99.90;;;;;;5073916;28;20558;-83
2021/12/03 09:26:24;;;;;;;15.05;8.10;;;3.70;99.90;;;;;;5060095;28;20058;-87
2021/12/03 09:28:59;;;;;;;22.67;10.38;;;5.10;99.90;;;;;;5075077;28;20040;-86
2021/12/03 09:31:24;;;;;;;18.20;8.80;;;3.70;99.90;;;;;;5058354;28;20089;-86
2021/12/03 09:33:51;;;;;;;23.73;9.88;;;3.60;99.90;;;;;;5074393;28;20048;-85
2021/12/03 09:36:17;;;;;;;19.20;10.27;;;3.80;99.90;;;;;;5075755;28;20090;-85
2021/12/03 09:38:42;;;;;;;30.70;11.55;;;3.70;99.90;;;;;;5058992;28;20138;-86
2021/12/03 09:41:15;;;;;;;19.92;9.25;;;3.80;99.90;;;;;;5070916;28;20040;-85
2021/12/03 09:43:47;;;;;;;18.67;9.73;;;3.80;99.90;;;;;;5073204;28;20047;-85
2021/12/03 09:46:20;;;;;;;17.80;9.15;;;3.70;99.90;;;;;;5076531;28;20047;-85
2021/12/03 09:49:07;;;;;;;24.63;11.70;;;3.80;99.90;;;;;;5075769;28;20040;-84
2021/12/03 09:51:45;;;;;;;19.45;8.85;;;3.90;99.90;;;;;;5057988;28;20484;-85
2021/12/03 09:56:58;;;;;;;20.30;11.02;;;3.90;99.90;;;;;;5057715;28;20044;-85
2021/12/03 10:18:36;;;;;;;17.42;8.77;;;4.00;99.90;;;;;;5067160;28;20093;-84
2021/12/03 10:29:27;;;;;;;17.70;8.60;;;4.10;99.90;;;;;;5070542;28;20043;-82
2021/12/03 10:46:01;;;;;;;15.70;6.43;;;4.70;99.90;;;;;;5069092;28;20131;-84
2021/12/03 10:48:40;;;;;;;16.05;6.90;;;4.40;99.90;;;;;;5055120;28;20415;-82
2021/12/03 10:51:35;;;;;;;13.70;6.50;;;5.10;99.90;;;;;;5070831;28;20507;-83
2021/12/03 10:54:21;;;;;;;18.92;6.63;;;4.30;99.90;;;;;;5068267;28;20048;-84
2021/12/03 10:59:38;;;;;;;12.80;5.30;;;4.50;99.90;;;;;;5070828;28;20063;-83
2021/12/03 11:25:16;;;;;;;11.77;4.65;;;4.40;99.90;;;;;;5070544;28;20127;-83
2021/12/03 13:24:59;;;;;;;10.50;6.40;;;4.00;99.90;;;;;;5069062;28;20040;-83
2021/12/03 13:28:09;;;;;;;10.40;7.28;;;4.90;99.90;;;;;;5048326;28;20048;-83
2021/12/03 14:01:56;;;;;;;8.23;4.55;;;4.50;99.90;;;;;;5054969;28;20051;-79
2021/12/03 14:31:25;;;;;;;10.73;4.43;;;4.60;99.90;;;;;;5045654;28;20052;-79
2021/12/03 14:43:01;;;;;;;8.35;4.85;;;4.80;99.90;;;;;;5070722;28;20505;-83
2021/12/03 14:56:15;;;;;;;9.95;4.70;;;4.90;99.90;;;;;;5066581;28;20044;-79
2021/12/03 15:04:03;;;;;;;11.15;4.60;;;4.90;99.90;;;;;;5069997;28;20067;-80
2021/12/03 15:06:33;;;;;;;7.32;3.95;;;5.10;99.90;;;;;;5068178;28;20044;-80
2021/12/03 15:09:19;;;;;;;9.48;4.90;;;5.00;99.90;;;;;;5068591;28;20040;-78
2021/12/03 15:11:57;;;;;;;11.43;5.15;;;5.90;99.90;;;;;;5040230;28;20047;-79
2021/12/03 15:28:06;;;;;;;8.85;5.53;;;5.00;99.90;;;;;;5069449;28;20048;-80
2021/12/03 15:35:56;;;;;;;10.48;6.38;;;4.80;99.90;;;;;;5068376;28;20048;-79
2021/12/03 16:08:28;;;;;;;19.02;12.32;;;5.20;99.90;;;;;;5058920;28;20054;-87
2021/12/03 16:51:53;;;;;;;22.15;13.57;;;5.50;99.90;;;;;;5038003;28;20113;-85
2021/12/03 16:54:27;;;;;;;23.40;15.55;;;4.60;99.90;;;;;;5057835;28;20032;-87
2021/12/03 16:56:54;;;;;;;27.30;15.40;;;4.70;99.90;;;;;;5073910;28;20044;-83
2021/12/03 16:59:21;;;;;;;22.23;13.02;;;5.40;99.90;;;;;;5058765;28;20041;-84
2021/12/03 17:09:27;;;;;;;24.63;15.83;;;5.30;99.90;;;;;;5058500;28;20453;-83
2021/12/03 17:54:33;;;;;;;22.27;13.75;;;4.70;99.90;;;;;;5074541;28;20116;-87
2021/12/03 17:57:09;;;;;;;23.20;14.40;;;4.80;99.90;;;;;;5075023;28;20047;-85
2021/12/03 17:59:40;;;;;;;24.10;13.95;;;5.00;99.90;;;;;;5072818;28;20397;-88
2021/12/03 18:02:35;;;;;;;23.85;14.43;;;4.80;99.90;;;;;;5072217;28;20078;-87
2021/12/03 18:05:18;;;;;;;28.17;15.68;;;4.80;99.90;;;;;;5069998;28;20049;-85
2021/12/03 18:55:42;;;;;;;27.15;13.43;;;4.80;99.90;;;;;;5057972;28;20036;-88
2021/12/03 18:58:09;;;;;;;31.98;16.55;;;5.00;99.90;;;;;;5055371;28;20029;-90
2021/12/03 19:00:46;;;;;;;33.45;17.02;;;5.00;99.90;;;;;;5072816;28;20068;-84
2021/12/03 19:06:14;;;;;;;36.30;18.88;;;5.30;99.90;;;;;;5068900;28;20141;-82
2021/12/03 19:08:49;;;;;;;31.67;17.35;;;5.60;99.90;;;;;;5053878;28;20493;-82
2021/12/03 19:11:22;;;;;;;26.38;14.95;;;4.80;99.90;;;;;;5054786;28;20033;-81
2021/12/03 19:13:50;;;;;;;32.28;15.80;;;5.00;99.90;;;;;;5035049;28;20044;-82
2021/12/03 19:16:17;;;;;;;32.97;17.95;;;5.00;99.90;;;;;;5069988;28;20036;-83
2021/12/03 19:18:45;;;;;;;37.08;19.23;;;5.00;99.90;;;;;;5067593;28;20063;-84
2021/12/03 19:21:18;;;;;;;30.13;16.60;;;5.60;99.90;;;;;;5052753;28;20130;-83
2021/12/03 19:23:44;;;;;;;34.55;18.20;;;5.90;99.90;;;;;;5065731;28;20051;-81
2021/12/03 19:26:11;;;;;;;40.40;20.95;;;5.00;99.90;;;;;;5018559;28;20500;-82
2021/12/03 19:28:37;;;;;;;;;;;4.90;99.90;;;;;;5053297;28;20507;-82
2021/12/03 19:31:05;;;;;;;40.03;18.92;;;4.90;99.90;;;;;;5053812;28;20000;-81
2021/12/03 19:33:33;;;;;;;38.22;19.08;;;5.50;99.90;;;;;;5067226;28;20033;-80
2021/12/03 19:35:59;;;;;;;37.25;19.17;;;5.00;99.90;;;;;;5052164;28;20041;-77
2021/12/03 19:38:24;;;;;;;41.72;21.02;;;5.00;99.90;;;;;;5061826;28;21131;-78
2021/12/03 19:41:15;;;;;;;39.70;20.47;;;4.90;99.90;;;;;;5048259;28;20419;-78
2021/12/03 19:43:44;;;;;;;35.40;18.42;;;4.90;99.90;;;;;;5051884;28;20911;-76
2021/12/03 19:46:13;;;;;;;41.30;20.80;;;4.90;99.90;;;;;;5069429;28;20052;-77
2021/12/03 19:48:42;;;;;;;42.75;21.08;;;4.90;99.90;;;;;;5068337;28;20032;-78
2021/12/03 19:51:14;;;;;;;41.50;19.88;;;4.80;99.90;;;;;;5068564;28;20049;-79
2021/12/03 19:54:00;;;;;;;41.97;21.80;;;4.80;99.90;;;;;;5049639;28;20044;-78
2021/12/03 19:56:28;;;;;;;45.40;21.77;;;4.80;99.90;;;;;;5068571;28;20106;-78
2021/12/03 19:58:56;;;;;;;47.30;23.65;;;4.90;99.90;;;;;;5051786;28;20395;-77
2021/12/03 20:01:22;;;;;;;48.55;23.85;;;4.90;99.90;;;;;;5068756;28;20474;-76
2021/12/03 20:03:51;;;;;;;41.58;19.90;;;4.90;99.90;;;;;;5067055;28;20065;-77
2021/12/03 20:06:18;;;;;;;44.05;22.67;;;4.90;99.90;;;;;;5070649;28;20040;-83
2021/12/03 20:08:44;;;;;;;44.08;22.95;;;4.90;99.90;;;;;;5056333;28;20083;-82
2021/12/03 20:11:10;;;;;;;43.72;21.15;;;4.80;99.90;;;;;;5073739;28;20035;-83
2021/12/03 20:13:41;;;;;;;37.70;18.23;;;5.00;99.90;;;;;;5070221;28;20125;-82
2021/12/03 20:18:51;;;;;;;46.72;22.75;;;5.60;99.90;;;;;;5089859;28;20127;-83
2021/12/03 20:21:19;;;;;;;43.67;21.83;;;5.10;99.90;;;;;;5073828;28;20040;-81
2021/12/03 20:26:35;;;;;;;46.13;21.92;;;5.00;99.90;;;;;;5072700;28;20493;-79
2021/12/03 20:29:32;;;;;;;47.83;22.98;;;5.00;99.90;;;;;;5073497;28;20099;-80
2021/12/03 20:32:12;;;;;;;47.05;23.20;;;5.00;99.90;;;;;;5071305;28;20094;-81
2021/12/03 20:35:07;;;;;;;46.38;21.48;;;6.20;99.90;;;;;;5041375;28;20086;-81
2021/12/03 20:40:23;;;;;;;47.85;22.65;;;5.00;99.90;;;;;;5072318;28;20051;-81
2021/12/03 20:45:52;;;;;;;50.50;23.02;;;5.20;99.90;;;;;;5072894;28;20075;-81
2021/12/03 20:48:21;;;;;;;50.40;22.45;;;5.10;99.90;;;;;;5058434;28;20115;-80
2021/12/03 20:53:36;;;;;;;45.17;22.08;;;5.20;99.90;;;;;;5072975;28;20090;-79
2021/12/03 21:09:50;;;;;;;51.95;23.90;;;5.10;99.90;;;;;;5072724;28;20083;-79